Time;durP1;ratioP1;P1;durP2;ratioP2;P2;SDS_P1;SDS_P2;PMS_P1;PMS_P2;Temp;Humidity;BMP_temperature;BMP_pressure;BME280_temperature;BME280_humidity;BME280_pressure;Samples;Min_cycle;Max_cycle;Signal;HPM_P1;HPM_P2
2023/04/16 00:00:36;;;;;;;4.40;1.15;;;;;;;;;;5022165;28;20064;-71
2023/04/16 00:03:05;;;;;;;4.10;1.25;;;;;;;;;;5007222;28;20095;-70
2023/04/16 00:05:32;;;;;;;6.85;1.50;;;;;;;;;;4999061;28;20052;-69
2023/04/16 00:07:58;;;;;;;4.88;1.15;;;;;;;;;;5008584;28;20050;-71
2023/04/16 00:10:25;;;;;;;5.30;1.20;;;;;;;;;;5016030;28;20045;-70
2023/04/16 00:12:54;;;;;;;4.50;1.30;;;;;;;;;;5006809;28;20147;-70
2023/04/16 00:15:21;;;;;;;5.00;1.08;;;;;;;;;;4992637;28;20061;-70
2023/04/16 00:17:47;;;;;;;3.63;1.42;;;;;;;;;;5032882;28;20056;-70
2023/04/16 00:20:16;;;;;;;4.80;1.23;;;;;;;;;;5037330;28;20060;-71
2023/04/16 00:22:43;;;;;;;3.92;1.30;;;;;;;;;;5005699;28;20161;-70
2023/04/16 00:25:10;;;;;;;3.17;1.30;;;;;;;;;;4989611;28;20057;-70
2023/04/16 00:27:37;;;;;;;5.35;1.60;;;;;;;;;;5014359;28;20052;-71
2023/04/16 00:30:03;;;;;;;6.20;1.83;;;;;;;;;;5043373;28;20099;-69
2023/04/16 00:32:30;;;;;;;7.97;1.45;;;;;;;;;;5001574;28;20053;-70
2023/04/16 00:34:57;;;;;;;3.97;1.30;;;;;;;;;;5010201;28;20088;-70
2023/04/16 00:37:25;;;;;;;4.57;1.30;;;;;;;;;;5008071;28;20072;-70
2023/04/16 00:39:52;;;;;;;5.97;1.45;;;;;;;;;;5014089;28;20140;-69
2023/04/16 00:42:18;;;;;;;5.65;1.40;;;;;;;;;;5033823;28;20053;-71
2023/04/16 00:44:45;;;;;;;6.93;1.60;;;;;;;;;;5012508;28;20061;-69
2023/04/16 00:47:12;;;;;;;7.55;1.70;;;;;;;;;;5000581;28;20049;-70
2023/04/16 00:49:39;;;;;;;4.80;1.58;;;;;;;;;;5011858;28;20065;-70
2023/04/16 00:52:06;;;;;;;6.43;1.80;;;;;;;;;;5001741;28;20057;-70
2023/04/16 00:54:35;;;;;;;6.03;1.55;;;;;;;;;;4997010;28;20119;-70
2023/04/16 00:57:02;;;;;;;7.78;1.52;;;;;;;;;;4990883;28;20069;-70
2023/04/16 00:59:29;;;;;;;6.55;1.80;;;;;;;;;;5000362;28;20068;-71
2023/04/16 01:01:56;;;;;;;5.28;1.50;;;;;;;;;;5000706;28;20064;-70
2023/04/16 01:04:22;;;;;;;6.07;1.95;;;;;;;;;;5000944;28;20188;-70
2023/04/16 01:06:49;;;;;;;6.68;1.75;;;;;;;;;;5006996;28;20057;-70
2023/04/16 01:09:16;;;;;;;5.68;1.50;;;;;;;;;;4996757;28;20140;-70
2023/04/16 01:11:45;;;;;;;7.03;2.00;;;;;;;;;;5002581;28;20057;-70
2023/04/16 01:14:13;;;;;;;6.25;1.90;;;;;;;;;;5006578;28;20057;-70
2023/04/16 01:16:40;;;;;;;8.30;2.08;;;;;;;;;;4971312;28;20063;-70
2023/04/16 01:19:07;;;;;;;6.60;1.77;;;;;;;;;;4993228;28;20053;-70
2023/04/16 01:21:35;;;;;;;6.55;2.13;;;;;;;;;;5005496;28;20041;-70
2023/04/16 01:24:02;;;;;;;8.30;2.10;;;;;;;;;;4997021;28;20068;-70
2023/04/16 01:26:32;;;;;;;7.55;2.28;;;;;;;;;;4996341;28;20057;-69
2023/04/16 01:28:58;;;;;;;8.30;2.35;;;;;;;;;;4995998;28;20061;-71
2023/04/16 01:31:25;;;;;;;11.30;2.90;;;;;;;;;;4998348;28;20211;-70
2023/04/16 01:33:52;;;;;;;9.30;2.58;;;;;;;;;;4995644;28;20057;-69
2023/04/16 01:36:19;;;;;;;11.00;2.65;;;;;;;;;;4996349;28;20053;-70
2023/04/16 01:38:47;;;;;;;9.57;2.53;;;;;;;;;;4989494;28;20065;-70
2023/04/16 01:41:14;;;;;;;9.77;2.88;;;;;;;;;;4989429;28;20041;-70
2023/04/16 01:43:41;;;;;;;9.10;2.95;;;;;;;;;;4996176;28;20058;-71
2023/04/16 01:46:12;;;;;;;8.27;2.60;;;;;;;;;;4997213;28;20068;-70
2023/04/16 01:48:38;;;;;;;8.13;2.80;;;;;;;;;;5005464;28;20049;-71
2023/04/16 01:51:05;;;;;;;10.88;2.60;;;;;;;;;;5022105;28;20081;-71
2023/04/16 01:53:32;;;;;;;7.63;2.50;;;;;;;;;;4999810;28;20136;-69
2023/04/16 01:56:01;;;;;;;10.35;2.72;;;;;;;;;;4992665;28;20116;-70
2023/04/16 01:58:28;;;;;;;7.45;2.75;;;;;;;;;;4999996;28;20064;-70
2023/04/16 02:00:55;;;;;;;11.50;3.05;;;;;;;;;;4992516;28;20053;-69
2023/04/16 02:03:23;;;;;;;9.27;2.95;;;;;;;;;;5016531;28;20065;-71
2023/04/16 02:05:50;;;;;;;14.38;3.00;;;;;;;;;;4975704;28;20049;-70
2023/04/16 02:08:17;;;;;;;11.70;3.00;;;;;;;;;;5014049;28;20091;-70
2023/04/16 02:10:45;;;;;;;11.20;2.90;;;;;;;;;;4996076;28;20182;-70
2023/04/16 02:13:14;;;;;;;10.82;3.38;;;;;;;;;;4995807;28;20081;-70
2023/04/16 02:15:44;;;;;;;8.73;2.50;;;;;;;;;;5005735;28;20064;-70
2023/04/16 02:18:11;;;;;;;8.10;3.08;;;;;;;;;;5004796;28;20061;-71
2023/04/16 02:20:39;;;;;;;11.13;3.25;;;;;;;;;;4998043;28;20149;-70
2023/04/16 02:23:06;;;;;;;9.65;2.97;;;;;;;;;;5017820;28;20067;-70
2023/04/16 02:25:33;;;;;;;12.38;3.42;;;;;;;;;;5003895;28;20060;-70
2023/04/16 02:28:00;;;;;;;10.02;3.28;;;;;;;;;;5000848;28;20045;-70
2023/04/16 02:43:18;;;;;;;11.05;3.08;;;;;;;;;;4960389;28;20053;-71
2023/04/16 02:45:44;;;;;;;10.85;3.13;;;;;;;;;;4971820;28;20200;-70
2023/04/16 02:48:11;;;;;;;15.88;3.50;;;;;;;;;;4969025;28;20062;-70
2023/04/16 02:50:38;;;;;;;15.18;3.63;;;;;;;;;;4975570;28;20066;-70
2023/04/16 02:53:06;;;;;;;15.82;4.13;;;;;;;;;;4989344;28;20049;-71
2023/04/16 02:55:33;;;;;;;8.60;3.05;;;;;;;;;;4962862;28;20078;-70
2023/04/16 02:57:59;;;;;;;12.93;3.25;;;;;;;;;;4976505;28;20073;-69
2023/04/16 03:00:28;;;;;;;12.27;3.35;;;;;;;;;;4966937;28;20069;-69
2023/04/16 03:02:54;;;;;;;12.43;3.60;;;;;;;;;;4977135;28;20061;-69
2023/04/16 03:05:21;;;;;;;13.93;3.85;;;;;;;;;;4947491;28;20054;-71
2023/04/16 03:07:49;;;;;;;16.25;3.72;;;;;;;;;;4991635;28;20054;-70
2023/04/16 03:10:16;;;;;;;9.90;3.40;;;;;;;;;;4976195;28;20061;-71
2023/04/16 03:12:42;;;;;;;11.07;3.20;;;;;;;;;;4970427;28;20080;-70
2023/04/16 03:15:10;;;;;;;12.93;3.53;;;;;;;;;;4968659;28;20254;-69
2023/04/16 03:17:38;;;;;;;13.27;3.20;;;;;;;;;;4966895;28;20063;-69
2023/04/16 03:20:06;;;;;;;15.63;4.30;;;;;;;;;;4974787;28;20320;-70
2023/04/16 03:22:33;;;;;;;14.77;4.07;;;;;;;;;;4970141;28;20066;-70
2023/04/16 03:24:59;;;;;;;14.18;4.13;;;;;;;;;;4963264;28;20120;-70
2023/04/16 03:27:26;;;;;;;13.07;3.88;;;;;;;;;;4968417;28;20058;-69
2023/04/16 03:29:52;;;;;;;12.75;3.72;;;;;;;;;;4969108;28;20054;-70
2023/04/16 03:32:19;;;;;;;11.32;3.97;;;;;;;;;;4974991;28;20062;-70
2023/04/16 03:34:47;;;;;;;13.60;3.80;;;;;;;;;;4963593;28;20062;-70
2023/04/16 03:37:14;;;;;;;11.82;4.18;;;;;;;;;;4987325;28;20173;-69
2023/04/16 03:39:41;;;;;;;13.57;4.10;;;;;;;;;;4968405;28;20062;-70
2023/04/16 03:42:07;;;;;;;13.02;4.40;;;;;;;;;;4973700;28;20054;-70
2023/04/16 03:44:34;;;;;;;11.45;3.95;;;;;;;;;;4969072;28;20054;-69
2023/04/16 03:47:01;;;;;;;14.98;4.32;;;;;;;;;;4966904;28;20089;-70
2023/04/16 03:49:28;;;;;;;13.88;4.20;;;;;;;;;;4968862;28;20062;-70
2023/04/16 03:51:56;;;;;;;14.23;4.10;;;;;;;;;;4969657;28;20061;-71
2023/04/16 03:54:22;;;;;;;13.07;4.15;;;;;;;;;;4964048;28;20072;-70
2023/04/16 03:56:50;;;;;;;17.55;4.38;;;;;;;;;;4971747;28;20050;-71
2023/04/16 03:59:17;;;;;;;15.60;4.63;;;;;;;;;;4967972;28;20054;-71
2023/04/16 04:01:44;;;;;;;11.40;4.18;;;;;;;;;;4995141;28;20054;-70
2023/04/16 04:04:11;;;;;;;15.65;4.70;;;;;;;;;;4992933;28;20065;-69
2023/04/16 04:06:37;;;;;;;17.58;4.75;;;;;;;;;;4975465;28;20061;-71
2023/04/16 04:09:08;;;;;;;13.40;4.68;;;;;;;;;;4981623;28;20125;-70
2023/04/16 04:11:36;;;;;;;14.98;4.70;;;;;;;;;;4971240;28;20058;-70
2023/04/16 04:14:05;;;;;;;16.30;5.15;;;;;;;;;;4989149;28;20153;-70
2023/04/16 04:16:32;;;;;;;15.13;5.03;;;;;;;;;;4985992;28;20053;-70
2023/04/16 04:18:59;;;;;;;16.05;4.93;;;;;;;;;;4997543;28;20137;-70
2023/04/16 04:21:26;;;;;;;15.00;4.50;;;;;;;;;;4989010;28;20064;-70
2023/04/16 04:23:53;;;;;;;15.65;4.82;;;;;;;;;;4984127;28;20052;-70
2023/04/16 04:26:21;;;;;;;14.73;4.28;;;;;;;;;;5004506;28;20064;-70
2023/04/16 04:28:48;;;;;;;13.70;4.85;;;;;;;;;;4995780;28;20117;-71
2023/04/16 04:31:17;;;;;;;14.38;5.57;;;;;;;;;;4949932;28;20059;-69
2023/04/16 04:33:44;;;;;;;16.90;5.15;;;;;;;;;;4963692;28;20058;-70
2023/04/16 04:36:11;;;;;;;16.70;5.45;;;;;;;;;;4973787;28;20054;-70
2023/04/16 04:38:40;;;;;;;15.50;5.75;;;;;;;;;;4972163;28;20073;-70
2023/04/16 04:41:07;;;;;;;16.35;5.47;;;;;;;;;;4989544;28;20069;-70
2023/04/16 04:43:35;;;;;;;14.98;5.57;;;;;;;;;;4971844;28;20077;-70
2023/04/16 04:46:02;;;;;;;16.40;5.68;;;;;;;;;;4991634;28;20054;-70
2023/04/16 04:48:31;;;;;;;16.00;5.35;;;;;;;;;;4978437;28;20054;-70
2023/04/16 04:50:58;;;;;;;16.80;5.60;;;;;;;;;;4974111;28;20097;-69
2023/04/16 04:53:28;;;;;;;18.20;6.07;;;;;;;;;;4966965;28;20137;-70
2023/04/16 04:55:54;;;;;;;16.00;5.60;;;;;;;;;;4984442;28;20064;-69
2023/04/16 04:58:21;;;;;;;16.67;5.45;;;;;;;;;;4986441;28;20068;-70
2023/04/16 05:00:51;;;;;;;16.95;5.53;;;;;;;;;;4971163;28;20063;-70
2023/04/16 05:03:20;;;;;;;15.98;5.70;;;;;;;;;;4971992;28;20058;-70
2023/04/16 05:05:46;;;;;;;16.88;6.15;;;;;;;;;;4960093;28;20055;-70
2023/04/16 05:08:13;;;;;;;20.10;6.38;;;;;;;;;;4962549;28;20148;-70
2023/04/16 05:10:40;;;;;;;18.60;5.65;;;;;;;;;;4987340;28;20054;-70
2023/04/16 05:13:07;;;;;;;15.43;5.90;;;;;;;;;;4984752;28;20050;-71
2023/04/16 05:15:36;;;;;;;15.90;5.10;;;;;;;;;;4968458;28;20051;-71
2023/04/16 05:18:05;;;;;;;15.98;5.47;;;;;;;;;;4993102;28;20054;-70
2023/04/16 05:20:34;;;;;;;17.52;6.20;;;;;;;;;;4982600;28;20058;-70
2023/04/16 05:23:04;;;;;;;14.88;4.97;;;;;;;;;;4980117;28;20150;-70
2023/04/16 05:25:31;;;;;;;16.90;5.63;;;;;;;;;;4973614;28;20145;-70
2023/04/16 05:28:00;;;;;;;17.38;5.93;;;;;;;;;;5015707;28;20065;-71
2023/04/16 05:30:27;;;;;;;16.00;5.47;;;;;;;;;;4987092;28;20168;-70
2023/04/16 05:32:56;;;;;;;19.08;5.88;;;;;;;;;;4970797;28;20061;-70
2023/04/16 05:35:26;;;;;;;;;;;;;;;;;;4969018;28;20065;-70
2023/04/16 05:37:54;;;;;;;20.30;5.22;;;;;;;;;;4998342;28;19960;-70
2023/04/16 05:40:21;;;;;;;13.43;5.10;;;;;;;;;;4989559;28;20207;-69
2023/04/16 05:42:51;;;;;;;16.30;5.53;;;;;;;;;;4999583;28;20119;-70
2023/04/16 05:45:19;;;;;;;15.38;5.30;;;;;;;;;;4951466;28;20078;-70
2023/04/16 05:47:51;;;;;;;12.50;4.82;;;;;;;;;;4988293;28;20065;-70
2023/04/16 05:50:18;;;;;;;16.42;5.65;;;;;;;;;;4991133;28;20053;-70
2023/04/16 05:52:45;;;;;;;17.20;5.80;;;;;;;;;;4981602;28;20085;-70
2023/04/16 05:55:13;;;;;;;14.40;5.13;;;;;;;;;;4969692;28;20064;-70
2023/04/16 05:57:40;;;;;;;16.17;4.55;;;;;;;;;;4961518;28;20098;-70
2023/04/16 06:00:09;;;;;;;14.55;5.10;;;;;;;;;;4957354;28;20122;-69
2023/04/16 06:02:36;;;;;;;16.98;5.60;;;;;;;;;;4969608;28;20058;-70
2023/04/16 06:05:05;;;;;;;14.00;5.45;;;;;;;;;;4961716;28;20058;-71
2023/04/16 06:07:38;;;;;;;12.95;4.70;;;;;;;;;;4968507;28;20500;-70
2023/04/16 06:10:05;;;;;;;13.95;4.70;;;;;;;;;;4977249;28;20074;-69
2023/04/16 06:12:33;;;;;;;14.43;5.97;;;;;;;;;;4973798;28;20071;-70
2023/04/16 06:15:09;;;;;;;15.30;5.15;;;;;;;;;;4972900;28;20154;-70
2023/04/16 06:17:36;;;;;;;18.50;5.53;;;;;;;;;;4984096;28;20058;-70
2023/04/16 06:20:03;;;;;;;15.50;5.13;;;;;;;;;;4987733;28;20091;-70
2023/04/16 06:22:35;;;;;;;17.27;5.50;;;;;;;;;;4986120;28;20050;-69
2023/04/16 06:25:02;;;;;;;13.50;5.35;;;;;;;;;;4973019;28;20093;-70
2023/04/16 06:27:29;;;;;;;14.93;5.22;;;;;;;;;;4969907;28;20050;-70
2023/04/16 06:30:00;;;;;;;18.95;5.03;;;;;;;;;;4978449;28;20058;-69
2023/04/16 06:32:27;;;;;;;15.13;5.40;;;;;;;;;;4974383;28;20050;-69
2023/04/16 06:34:55;;;;;;;16.80;5.25;;;;;;;;;;4973350;28;20080;-70
2023/04/16 06:37:26;;;;;;;11.80;4.57;;;;;;;;;;4961238;28;20092;-70
2023/04/16 06:39:59;;;;;;;14.88;5.45;;;;;;;;;;5012310;28;20057;-71
2023/04/16 06:42:28;;;;;;;14.52;4.78;;;;;;;;;;4954573;28;20089;-71
2023/04/16 06:44:56;;;;;;;14.98;5.50;;;;;;;;;;4965591;28;20061;-71
2023/04/16 06:47:27;;;;;;;14.00;5.50;;;;;;;;;;4968847;28;20488;-71
2023/04/16 06:49:56;;;;;;;12.38;4.88;;;;;;;;;;4987327;28;20061;-70
2023/04/16 06:52:35;;;;;;;18.88;5.60;;;;;;;;;;4995877;28;20081;-70
2023/04/16 06:55:08;;;;;;;14.25;5.03;;;;;;;;;;4973858;28;20062;-71
2023/04/16 06:57:35;;;;;;;14.23;5.10;;;;;;;;;;4970239;28;20045;-71
2023/04/16 07:00:03;;;;;;;15.43;5.70;;;;;;;;;;4974160;28;20054;-71
2023/04/16 07:02:32;;;;;;;13.83;5.20;;;;;;;;;;4981462;28;20062;-70
2023/04/16 07:05:00;;;;;;;15.05;5.97;;;;;;;;;;4964061;28;20054;-70
2023/04/16 07:07:27;;;;;;;18.67;6.00;;;;;;;;;;4951477;28;20224;-71
2023/04/16 07:09:53;;;;;;;13.98;5.38;;;;;;;;;;4972654;28;20061;-70
2023/04/16 07:12:22;;;;;;;16.70;6.35;;;;;;;;;;4980743;28;20069;-70
2023/04/16 07:14:49;;;;;;;;;;;;;;;;;;4977623;28;20049;-71
2023/04/16 07:17:15;;;;;;;11.57;4.78;;;;;;;;;;4992443;28;19988;-70
2023/04/16 07:19:44;;;;;;;19.90;5.75;;;;;;;;;;4995648;28;20052;-70
2023/04/16 07:22:10;;;;;;;12.95;4.78;;;;;;;;;;4980318;28;20059;-70
2023/04/16 07:24:37;;;;;;;13.43;5.32;;;;;;;;;;4960954;28;20057;-70
2023/04/16 07:27:04;;;;;;;17.40;5.38;;;;;;;;;;4994664;28;20076;-70
2023/04/16 07:29:36;;;;;;;18.00;5.28;;;;;;;;;;4989127;28;20050;-70
2023/04/16 07:32:06;;;;;;;22.23;6.05;;;;;;;;;;4970729;28;20388;-70
2023/04/16 07:34:37;;;;;;;18.98;5.82;;;;;;;;;;4947248;28;20054;-71
2023/04/16 07:37:15;;;;;;;15.32;5.75;;;;;;;;;;4966049;28;20046;-71
2023/04/16 07:39:44;;;;;;;16.92;5.45;;;;;;;;;;4981488;28;20054;-71
2023/04/16 07:42:11;;;;;;;17.70;6.25;;;;;;;;;;4978490;28;20056;-71
2023/04/16 07:44:38;;;;;;;16.50;5.15;;;;;;;;;;4955947;28;20082;-71
2023/04/16 07:47:07;;;;;;;17.73;5.88;;;;;;;;;;4969688;28;20077;-71
2023/04/16 07:49:37;;;;;;;14.25;5.47;;;;;;;;;;4960731;28;20181;-70
2023/04/16 07:52:05;;;;;;;14.43;5.55;;;;;;;;;;4986624;28;20061;-70
2023/04/16 07:54:37;;;;;;;20.02;6.30;;;;;;;;;;4988116;28;20061;-71
2023/04/16 07:57:04;;;;;;;17.80;5.75;;;;;;;;;;4965421;28;20067;-71
2023/04/16 07:59:31;;;;;;;19.35;6.25;;;;;;;;;;4979773;28;20132;-70
2023/04/16 08:02:07;;;;;;;23.80;7.15;;;;;;;;;;4971734;28;20058;-70
2023/04/16 08:04:34;;;;;;;17.23;6.35;;;;;;;;;;4969281;28;20070;-70
2023/04/16 08:07:01;;;;;;;18.48;6.43;;;;;;;;;;4956291;28;20160;-70
2023/04/16 08:09:28;;;;;;;18.02;6.63;;;;;;;;;;4968672;28;20053;-70
2023/04/16 08:12:00;;;;;;;18.20;7.03;;;;;;;;;;4975410;28;20150;-70
2023/04/16 08:14:29;;;;;;;18.85;6.72;;;;;;;;;;4957162;28;20062;-71
2023/04/16 08:16:59;;;;;;;18.15;7.00;;;;;;;;;;4960978;28;20034;-70
2023/04/16 08:19:27;;;;;;;24.27;7.35;;;;;;;;;;4979628;28;20131;-70
2023/04/16 08:21:55;;;;;;;19.43;6.90;;;;;;;;;;4979001;28;20050;-71
2023/04/16 08:24:22;;;;;;;19.83;7.30;;;;;;;;;;4953924;28;20046;-70
2023/04/16 08:26:49;;;;;;;18.42;7.80;;;;;;;;;;4974291;28;20109;-70
2023/04/16 08:29:20;;;;;;;18.13;7.25;;;;;;;;;;4988234;28;20057;-71
2023/04/16 08:31:47;;;;;;;19.88;6.18;;;;;;;;;;5013903;28;20069;-70
2023/04/16 08:34:19;;;;;;;20.83;6.70;;;;;;;;;;4972502;28;20069;-71
2023/04/16 08:36:48;;;;;;;19.15;6.80;;;;;;;;;;4975518;28;20096;-70
2023/04/16 08:39:15;;;;;;;18.02;7.10;;;;;;;;;;4961145;28;20053;-70
2023/04/16 08:41:43;;;;;;;21.75;6.95;;;;;;;;;;4976952;28;20056;-71
2023/04/16 08:44:13;;;;;;;18.25;7.22;;;;;;;;;;4965054;28;20170;-71
2023/04/16 08:46:42;;;;;;;22.10;6.88;;;;;;;;;;4975229;28;20054;-70
2023/04/16 08:49:14;;;;;;;16.63;7.03;;;;;;;;;;4970648;28;20085;-70
2023/04/16 08:51:45;;;;;;;18.55;7.18;;;;;;;;;;4972357;28;20077;-70
2023/04/16 08:54:15;;;;;;;19.75;6.95;;;;;;;;;;4973839;28;20062;-70
2023/04/16 08:56:43;;;;;;;17.35;7.25;;;;;;;;;;4983833;28;20062;-71
2023/04/16 08:59:10;;;;;;;21.90;7.20;;;;;;;;;;4966704;28;20060;-70
2023/04/16 09:01:38;;;;;;;24.45;8.25;;;;;;;;;;4976490;28;20058;-71
2023/04/16 09:04:14;;;;;;;20.83;7.63;;;;;;;;;;4989542;28;20061;-71
2023/04/16 09:06:43;;;;;;;22.17;7.75;;;;;;;;;;4952260;28;20062;-70
2023/04/16 09:09:18;;;;;;;18.75;7.05;;;;;;;;;;4974506;28;20091;-70
2023/04/16 09:11:45;;;;;;;23.58;8.40;;;;;;;;;;4979189;28;20058;-71
2023/04/16 09:14:12;;;;;;;20.00;7.32;;;;;;;;;;4972937;28;20100;-70
2023/04/16 09:16:40;;;;;;;19.60;7.03;;;;;;;;;;4952242;28;20051;-70
2023/04/16 09:19:16;;;;;;;22.70;8.50;;;;;;;;;;4970085;28;20062;-70
2023/04/16 09:21:46;;;;;;;18.85;7.80;;;;;;;;;;4994613;28;20053;-70
2023/04/16 09:24:13;;;;;;;23.50;8.10;;;;;;;;;;4975837;28;20147;-70
2023/04/16 09:26:45;;;;;;;22.08;8.02;;;;;;;;;;4956219;28;20064;-70
2023/04/16 09:29:12;;;;;;;20.02;7.35;;;;;;;;;;4968807;28;20062;-71
2023/04/16 09:31:43;;;;;;;27.73;7.85;;;;;;;;;;4980672;28;20058;-70
2023/04/16 09:34:10;;;;;;;21.25;7.97;;;;;;;;;;4978233;28;20050;-71
2023/04/16 09:36:38;;;;;;;23.45;8.35;;;;;;;;;;4980899;28;20058;-71
2023/04/16 09:39:06;;;;;;;18.77;7.57;;;;;;;;;;4972646;28;20054;-71
2023/04/16 09:41:34;;;;;;;20.55;7.47;;;;;;;;;;4960897;28;20050;-70
2023/04/16 09:44:03;;;;;;;26.42;8.85;;;;;;;;;;4968421;28;20092;-71
2023/04/16 09:46:30;;;;;;;20.67;7.38;;;;;;;;;;4964430;28;20065;-71
2023/04/16 09:48:57;;;;;;;23.13;8.23;;;;;;;;;;4967806;28;20047;-70
2023/04/16 09:51:25;;;;;;;24.67;8.57;;;;;;;;;;4958361;28;20089;-70
2023/04/16 09:54:14;;;;;;;21.73;7.70;;;;;;;;;;4967356;28;20108;-70
2023/04/16 09:56:46;;;;;;;19.38;7.93;;;;;;;;;;4956745;28;20073;-70
2023/04/16 09:59:19;;;;;;;23.90;8.57;;;;;;;;;;4974715;28;20073;-70
2023/04/16 10:01:48;;;;;;;24.75;8.85;;;;;;;;;;4974240;28;20156;-70
2023/04/16 10:04:15;;;;;;;20.92;8.15;;;;;;;;;;4994416;28;20074;-72
2023/04/16 10:06:41;;;;;;;20.35;8.05;;;;;;;;;;4964779;28;20058;-71
2023/04/16 10:09:12;;;;;;;25.02;9.00;;;;;;;;;;4974994;28;20081;-72
2023/04/16 10:11:39;;;;;;;27.80;8.73;;;;;;;;;;4972531;28;20066;-71
2023/04/16 10:14:08;;;;;;;19.17;8.40;;;;;;;;;;4975587;28;20050;-72
2023/04/16 10:16:35;;;;;;;20.65;7.38;;;;;;;;;;4974489;28;20089;-71
2023/04/16 10:19:07;;;;;;;24.85;9.55;;;;;;;;;;4996036;28;20081;-72
2023/04/16 10:21:34;;;;;;;22.90;8.68;;;;;;;;;;4959122;28;20121;-71
2023/04/16 10:24:01;;;;;;;25.30;7.95;;;;;;;;;;4981206;28;20106;-71
2023/04/16 10:26:33;;;;;;;24.92;8.60;;;;;;;;;;4972919;28;20085;-72
2023/04/16 10:29:00;;;;;;;26.42;9.20;;;;;;;;;;4976114;28;20054;-71
2023/04/16 10:31:32;;;;;;;24.42;8.85;;;;;;;;;;4965933;28;20065;-72
2023/04/16 10:33:59;;;;;;;22.75;8.30;;;;;;;;;;4976588;28;20141;-72
2023/04/16 10:36:28;;;;;;;27.85;9.00;;;;;;;;;;4965454;28;20054;-72
2023/04/16 10:39:00;;;;;;;20.45;8.50;;;;;;;;;;4978205;28;20050;-71
2023/04/16 10:41:28;;;;;;;24.98;9.07;;;;;;;;;;4967484;28;20054;-71
2023/04/16 10:44:04;;;;;;;21.52;8.07;;;;;;;;;;4999895;28;20058;-71
2023/04/16 10:46:37;;;;;;;22.80;8.30;;;;;;;;;;4948960;28;20054;-72
2023/04/16 10:49:13;;;;;;;21.90;7.97;;;;;;;;;;4974745;28;20051;-73
2023/04/16 10:51:45;;;;;;;24.52;9.25;;;;;;;;;;4951258;28;20173;-72
2023/04/16 10:54:24;;;;;;;23.17;8.25;;;;;;;;;;4979237;28;20057;-71
2023/04/16 10:56:54;;;;;;;20.15;8.77;;;;;;;;;;4994382;28;20136;-72
2023/04/16 10:59:26;;;;;;;21.70;8.23;;;;;;;;;;4972553;28;20058;-72
2023/04/16 11:01:55;;;;;;;21.70;8.50;;;;;;;;;;4967335;28;20065;-72
2023/04/16 11:04:35;;;;;;;20.67;8.35;;;;;;;;;;4988709;28;20084;-73
2023/04/16 11:07:04;;;;;;;24.45;8.50;;;;;;;;;;4977899;28;20139;-72
2023/04/16 11:09:49;;;;;;;31.05;8.63;;;;;;;;;;4980230;28;20064;-71
2023/04/16 11:12:18;;;;;;;25.50;8.68;;;;;;;;;;4976895;28;20062;-71
2023/04/16 11:14:47;;;;;;;22.58;8.25;;;;;;;;;;4974029;28;20081;-72
2023/04/16 11:17:19;;;;;;;24.38;8.85;;;;;;;;;;4989813;28;20058;-71
2023/04/16 11:19:46;;;;;;;21.92;8.32;;;;;;;;;;4975176;28;20054;-72
2023/04/16 11:22:13;;;;;;;22.73;8.45;;;;;;;;;;4972056;28;20057;-72
2023/04/16 11:24:40;;;;;;;23.67;8.30;;;;;;;;;;4969167;28;20058;-73
2023/04/16 11:27:10;;;;;;;23.00;8.68;;;;;;;;;;4980731;28;20065;-72
2023/04/16 11:29:39;;;;;;;21.17;8.55;;;;;;;;;;4962288;28;20054;-72
2023/04/16 11:32:08;;;;;;;18.15;8.07;;;;;;;;;;4962026;28;20069;-72
2023/04/16 11:34:43;;;;;;;22.00;7.93;;;;;;;;;;4953023;28;20049;-73
2023/04/16 11:37:13;;;;;;;20.27;8.20;;;;;;;;;;4944440;28;20050;-73
2023/04/16 11:39:50;;;;;;;23.50;7.90;;;;;;;;;;4963910;28;20112;-72
2023/04/16 11:42:22;;;;;;;22.15;8.32;;;;;;;;;;4958880;28;20054;-72
2023/04/16 11:44:53;;;;;;;19.52;8.73;;;;;;;;;;4945609;28;20077;-73
2023/04/16 11:47:23;;;;;;;22.85;8.35;;;;;;;;;;4994524;28;20054;-72
2023/04/16 11:49:57;;;;;;;24.40;8.23;;;;;;;;;;4982161;28;20060;-72
2023/04/16 11:52:28;;;;;;;18.45;7.63;;;;;;;;;;4992105;28;20186;-72
2023/04/16 11:54:55;;;;;;;22.45;8.23;;;;;;;;;;4960481;28;20058;-73
2023/04/16 11:57:25;;;;;;;24.63;8.63;;;;;;;;;;4966661;28;20057;-72
2023/04/16 11:59:52;;;;;;;17.20;7.53;;;;;;;;;;4976192;28;20078;-72
2023/04/16 12:02:33;;;;;;;21.98;8.18;;;;;;;;;;4961588;28;20054;-71
2023/04/16 12:05:09;;;;;;;18.85;7.57;;;;;;;;;;4972394;28;20057;-72
2023/04/16 12:07:45;;;;;;;16.95;7.65;;;;;;;;;;4971311;28;20050;-72
2023/04/16 12:10:12;;;;;;;19.50;7.85;;;;;;;;;;4977262;28;20145;-72
2023/04/16 12:12:45;;;;;;;23.45;7.53;;;;;;;;;;4968746;28;20142;-72
2023/04/16 12:15:13;;;;;;;23.50;7.93;;;;;;;;;;4984573;28;20273;-72
2023/04/16 12:17:43;;;;;;;23.17;8.95;;;;;;;;;;4992921;28;20046;-72
2023/04/16 12:20:17;;;;;;;20.30;7.82;;;;;;;;;;4956376;28;20050;-72
2023/04/16 12:22:47;;;;;;;19.02;8.02;;;;;;;;;;4969212;28;20050;-73
2023/04/16 12:25:14;;;;;;;16.90;7.93;;;;;;;;;;4963561;28;20132;-73
2023/04/16 12:27:52;;;;;;;21.90;8.38;;;;;;;;;;4968841;28;20124;-70
2023/04/16 12:30:19;;;;;;;20.23;7.95;;;;;;;;;;4962063;28;20058;-70
2023/04/16 12:32:47;;;;;;;20.00;7.85;;;;;;;;;;4952529;28;20054;-71
2023/04/16 12:35:31;;;;;;;18.13;7.50;;;;;;;;;;4949267;28;20058;-71
2023/04/16 12:37:58;;;;;;;21.00;7.65;;;;;;;;;;4949298;28;20054;-70
2023/04/16 12:40:25;;;;;;;23.90;7.97;;;;;;;;;;4964870;28;20078;-70
2023/04/16 12:42:52;;;;;;;20.10;7.45;;;;;;;;;;4965462;28;20051;-70
2023/04/16 12:45:18;;;;;;;21.00;7.68;;;;;;;;;;4957286;28;20062;-70
2023/04/16 12:47:46;;;;;;;18.67;7.15;;;;;;;;;;4972492;28;20054;-71
2023/04/16 12:50:13;;;;;;;23.70;7.28;;;;;;;;;;4981692;28;20053;-71
2023/04/16 12:52:41;;;;;;;21.60;7.13;;;;;;;;;;4978018;28;20050;-74
2023/04/16 12:55:15;;;;;;;20.33;7.60;;;;;;;;;;4957427;28;20100;-74
2023/04/16 12:57:42;;;;;;;21.23;7.25;;;;;;;;;;4973597;28;20080;-70
2023/04/16 13:00:13;;;;;;;18.67;6.85;;;;;;;;;;4969781;28;20053;-72
2023/04/16 13:02:42;;;;;;;18.38;7.25;;;;;;;;;;4976000;28;20050;-73
2023/04/16 13:05:18;;;;;;;21.95;7.70;;;;;;;;;;4947066;28;20049;-73
2023/04/16 13:07:49;;;;;;;15.95;7.75;;;;;;;;;;4976715;28;20197;-72
2023/04/16 13:10:16;;;;;;;19.25;7.53;;;;;;;;;;4957412;28;20054;-70
2023/04/16 13:12:45;;;;;;;19.27;7.30;;;;;;;;;;4984544;28;20112;-71
2023/04/16 13:15:12;;;;;;;19.83;7.75;;;;;;;;;;4948701;28;20065;-71
2023/04/16 13:17:41;;;;;;;20.05;8.07;;;;;;;;;;4981079;28;20061;-70
2023/04/16 13:20:10;;;;;;;20.70;8.07;;;;;;;;;;4987599;28;20145;-70
2023/04/16 13:22:40;;;;;;;22.73;8.55;;;;;;;;;;4963582;28;20058;-72
2023/04/16 13:25:11;;;;;;;23.42;8.93;;;;;;;;;;4980057;28;20061;-71
2023/04/16 13:27:38;;;;;;;20.73;7.97;;;;;;;;;;4964342;28;20068;-71
2023/04/16 13:30:07;;;;;;;23.83;8.15;;;;;;;;;;4967095;28;20054;-72
2023/04/16 13:32:34;;;;;;;20.15;8.10;;;;;;;;;;4970423;28;20140;-71
2023/04/16 13:35:01;;;;;;;21.02;8.80;;;;;;;;;;4987147;28;20050;-72
2023/04/16 13:37:32;;;;;;;24.55;8.70;;;;;;;;;;4972437;28;20053;-72
2023/04/16 13:39:59;;;;;;;24.77;8.07;;;;;;;;;;4990190;28;20064;-71
2023/04/16 13:42:28;;;;;;;21.27;8.68;;;;;;;;;;4988371;28;20050;-72
2023/04/16 13:44:56;;;;;;;20.20;8.63;;;;;;;;;;4953895;28;20054;-72
2023/04/16 13:47:22;;;;;;;20.55;8.18;;;;;;;;;;4987800;28;20133;-72
2023/04/16 13:49:49;;;;;;;20.77;8.82;;;;;;;;;;4969003;28;20082;-70
2023/04/16 13:52:22;;;;;;;26.92;8.93;;;;;;;;;;4942481;28;20077;-71
2023/04/16 13:54:49;;;;;;;23.13;8.88;;;;;;;;;;4926994;28;20066;-72
2023/04/16 13:57:19;;;;;;;25.80;9.70;;;;;;;;;;4923265;28;20164;-72
2023/04/16 13:59:47;;;;;;;23.65;9.35;;;;;;;;;;4951288;28;20061;-70
2023/04/16 14:02:13;;;;;;;24.52;8.43;;;;;;;;;;4969252;28;20261;-71
2023/04/16 14:04:42;;;;;;;27.55;10.07;;;;;;;;;;4986260;28;20064;-71
2023/04/16 14:07:20;;;;;;;24.77;8.85;;;;;;;;;;4923692;28;20342;-72
2023/04/16 14:09:46;;;;;;;22.85;8.88;;;;;;;;;;4969787;28;20051;-71
2023/04/16 14:12:13;;;;;;;22.73;8.38;;;;;;;;;;4966212;28;20046;-71
2023/04/16 14:14:48;;;;;;;25.42;9.48;;;;;;;;;;4980486;28;20131;-71
2023/04/16 14:17:16;;;;;;;21.90;9.27;;;;;;;;;;4968471;28;20065;-71
2023/04/16 14:19:43;;;;;;;20.83;8.10;;;;;;;;;;4957924;28;20058;-72
2023/04/16 14:22:09;;;;;;;21.92;8.85;;;;;;;;;;4960353;28;20062;-72
2023/04/16 14:24:36;;;;;;;18.67;8.10;;;;;;;;;;4962297;28;20048;-71
2023/04/16 14:27:06;;;;;;;19.02;8.50;;;;;;;;;;4965883;28;20066;-71
2023/04/16 14:29:36;;;;;;;23.80;8.57;;;;;;;;;;4945051;28;20054;-72
2023/04/16 14:32:05;;;;;;;25.15;9.02;;;;;;;;;;4951202;28;20055;-71
2023/04/16 14:34:34;;;;;;;22.67;8.52;;;;;;;;;;4947987;28;20054;-71
2023/04/16 14:37:06;;;;;;;20.58;8.68;;;;;;;;;;4920415;28;20054;-71
2023/04/16 14:39:37;;;;;;;19.60;8.63;;;;;;;;;;4939651;28;20431;-70
2023/04/16 14:42:05;;;;;;;19.42;8.85;;;;;;;;;;4939796;28;20054;-72
2023/04/16 14:44:31;;;;;;;22.52;8.88;;;;;;;;;;4944388;28;20054;-72
2023/04/16 14:49:47;;;;;;;20.02;8.30;;;;;;;;;;4966277;28;20061;-70
2023/04/16 14:52:20;;;;;;;23.48;8.63;;;;;;;;;;4978635;28;20054;-70
2023/04/16 14:54:47;;;;;;;22.08;8.73;;;;;;;;;;4966801;28;20170;-71
2023/04/16 14:57:16;;;;;;;20.73;7.82;;;;;;;;;;4963600;28;20062;-70